createdAt,value
2018-02-22T00:00:53.749Z,13.70
2018-02-22T00:01:53.471Z,13.70
2018-02-22T00:02:54.221Z,14.30
2018-02-22T00:03:53.960Z,14.00
2018-02-22T00:04:53.731Z,13.20
2018-02-22T00:05:53.388Z,14.00
2018-02-22T00:07:15.697Z,13.80
2018-02-22T00:08:15.740Z,13.80
2018-02-22T00:09:16.448Z,13.80
2018-02-22T00:10:16.042Z,14.70
2018-02-22T00:11:15.864Z,14.20
2018-02-22T00:12:15.702Z,13.30
2018-02-22T00:13:15.661Z,14.00
2018-02-22T00:14:16.141Z,14.30
2018-02-22T00:15:15.458Z,14.90
2018-02-22T00:16:16.263Z,13.60
2018-02-22T00:17:15.663Z,12.90
2018-02-22T00:18:16.858Z,13.80
2018-02-22T00:19:15.555Z,14.30
2018-02-22T00:20:15.929Z,13.10
2018-02-22T00:21:15.642Z,13.60
2018-02-22T00:22:15.263Z,13.00
2018-02-22T00:23:16.253Z,13.60
2018-02-22T00:24:16.005Z,13.90
2018-02-22T00:25:15.614Z,13.80
2018-02-22T00:26:15.867Z,14.50
2018-02-22T00:27:15.822Z,14.60
2018-02-22T00:28:15.400Z,13.70
2018-02-22T00:29:16.179Z,14.10
2018-02-22T00:30:37.210Z,14.10
2018-02-22T00:31:37.073Z,14.40
2018-02-22T00:32:37.715Z,13.20
2018-02-22T00:33:37.409Z,14.10
2018-02-22T00:34:37.740Z,13.60
2018-02-22T00:35:37.110Z,13.20
2018-02-22T00:36:37.581Z,14.30
2018-02-22T00:37:37.545Z,14.00
2018-02-22T00:38:36.988Z,13.80
2018-02-22T00:39:37.743Z,13.70
2018-02-22T00:40:37.333Z,13.40
2018-02-22T00:41:37.255Z,13.30
2018-02-22T00:42:37.629Z,14.10
2018-02-22T00:43:37.554Z,14.50
2018-02-22T00:44:59.216Z,13.30
2018-02-22T00:45:59.524Z,13.10
2018-02-22T00:46:59.211Z,13.90
2018-02-22T00:47:59.685Z,13.50
2018-02-22T00:48:59.467Z,13.90
2018-02-22T00:49:59.338Z,13.50
2018-02-22T00:50:58.882Z,13.80
2018-02-22T00:51:59.753Z,13.40
2018-02-22T00:52:59.203Z,14.60
2018-02-22T00:53:59.989Z,13.80
2018-02-22T00:54:59.718Z,13.30
2018-02-22T00:55:59.480Z,13.00
2018-02-22T00:56:58.847Z,13.30
2018-02-22T00:57:59.576Z,12.80
2018-02-22T00:58:59.580Z,13.40
2018-02-22T00:59:59.610Z,13.20
2018-02-22T01:00:59.458Z,12.60
2018-02-22T01:01:59.218Z,13.00
2018-02-22T01:02:59.943Z,13.00
2018-02-22T01:03:59.672Z,12.80
2018-02-22T01:04:59.558Z,13.40
2018-02-22T01:05:59.119Z,12.90
2018-02-22T01:07:00.700Z,13.30
2018-02-22T01:07:59.371Z,12.60
2018-02-22T01:08:59.380Z,12.70
2018-02-22T01:09:58.994Z,12.40
2018-02-22T01:10:59.746Z,13.00
2018-02-22T01:11:59.639Z,13.40
2018-02-22T01:13:21.794Z,12.50
2018-02-22T01:14:43.072Z,13.80
2018-02-22T01:15:44.001Z,13.00
2018-02-22T01:16:43.450Z,12.50
2018-02-22T01:17:42.847Z,12.80
2018-02-22T01:18:43.602Z,13.70
2018-02-22T01:19:43.243Z,13.10
2018-02-22T01:20:43.988Z,12.90
2018-02-22T01:21:43.633Z,13.10
2018-02-22T01:22:43.347Z,13.00
2018-02-22T01:23:43.628Z,13.40
2018-02-22T01:24:43.133Z,12.70
2018-02-22T01:25:43.968Z,13.10
2018-02-22T01:26:43.684Z,13.20
2018-02-22T01:27:43.379Z,13.20
2018-02-22T01:28:43.758Z,13.40
2018-02-22T01:29:43.329Z,13.00
2018-02-22T01:30:43.033Z,13.80
2018-02-22T01:31:43.756Z,12.60
2018-02-22T01:32:43.284Z,13.50
2018-02-22T01:33:42.740Z,13.50
2018-02-22T01:34:43.223Z,13.00
2018-02-22T01:35:42.713Z,13.60
2018-02-22T01:36:43.793Z,13.90
2018-02-22T01:37:43.632Z,13.00
2018-02-22T01:38:42.959Z,13.20
2018-02-22T01:39:43.834Z,12.90
2018-02-22T01:40:43.646Z,13.10
2018-02-22T01:41:43.505Z,13.50
2018-02-22T01:42:43.037Z,12.60
2018-02-22T01:44:05.887Z,13.00
2018-02-22T01:45:06.182Z,12.90
2018-02-22T01:46:05.761Z,13.00
2018-02-22T01:47:06.565Z,13.30
2018-02-22T01:48:06.330Z,12.40
2018-02-22T01:49:05.960Z,13.90
2018-02-22T01:50:06.030Z,12.60
2018-02-22T01:51:05.818Z,13.00
2018-02-22T01:52:06.569Z,13.80
2018-02-22T01:53:06.171Z,13.70
2018-02-22T01:54:06.021Z,13.50
2018-02-22T01:55:06.409Z,13.20
2018-02-22T01:56:06.062Z,13.60
2018-02-22T01:57:06.784Z,13.30
2018-02-22T01:58:06.202Z,12.40
2018-02-22T01:59:06.556Z,13.70
2018-02-22T02:00:05.997Z,13.50
2018-02-22T02:01:05.887Z,12.60
2018-02-22T02:02:06.556Z,13.70
2018-02-22T02:03:06.353Z,13.30
2018-02-22T02:04:06.204Z,13.70
2018-02-22T02:05:05.668Z,13.10
2018-02-22T02:06:06.254Z,12.80
2018-02-22T02:07:05.860Z,13.00
2018-02-22T02:08:06.365Z,12.60
2018-02-22T02:09:05.661Z,13.20
2018-02-22T02:10:06.331Z,13.90
2018-02-22T02:11:05.673Z,13.20
2018-02-22T02:12:06.506Z,13.00
2018-02-22T02:13:06.382Z,13.40
2018-02-22T02:14:06.089Z,13.50
2018-02-22T02:15:06.463Z,13.10
2018-02-22T02:16:05.695Z,13.00
2018-02-22T02:17:06.334Z,13.30
2018-02-22T02:18:06.702Z,13.40
2018-02-22T02:19:06.304Z,12.80
2018-02-22T02:20:27.845Z,12.90
2018-02-22T02:21:27.599Z,12.50
2018-02-22T02:22:28.278Z,12.50
2018-02-22T02:23:28.284Z,12.40
2018-02-22T02:24:27.768Z,13.00
2018-02-22T02:25:27.245Z,13.70
2018-02-22T02:26:27.549Z,13.30
2018-02-22T02:27:28.341Z,12.30
2018-02-22T02:28:28.026Z,12.90
2018-02-22T02:29:27.492Z,12.70
2018-02-22T02:30:28.227Z,14.10
2018-02-22T02:31:27.800Z,12.80
2018-02-22T02:32:27.762Z,14.10
2018-02-22T02:33:28.044Z,13.80
2018-02-22T02:34:27.512Z,13.20
2018-02-22T02:35:27.935Z,14.00
2018-02-22T02:36:27.628Z,13.40
2018-02-22T02:37:27.943Z,13.80
2018-02-22T02:38:27.335Z,13.00
2018-02-22T02:39:27.946Z,13.50
2018-02-22T02:40:27.685Z,13.70
2018-02-22T02:41:28.566Z,14.10
2018-02-22T02:42:27.882Z,13.20
2018-02-22T02:43:27.291Z,13.40
2018-02-22T02:44:27.832Z,14.20
2018-02-22T02:45:28.419Z,13.90
2018-02-22T02:46:27.750Z,13.30
2018-02-22T02:47:27.343Z,13.70
2018-02-22T02:48:27.939Z,14.50
2018-02-22T02:49:27.709Z,13.50
2018-02-22T02:50:28.478Z,13.40
2018-02-22T02:51:27.862Z,14.80
2018-02-22T02:52:27.577Z,14.10
2018-02-22T02:53:28.351Z,13.90
2018-02-22T02:54:27.774Z,13.70
2018-02-22T02:55:27.360Z,14.60
2018-02-22T02:56:27.860Z,13.50
2018-02-22T02:57:27.634Z,14.20
2018-02-22T02:58:49.747Z,14.30
2018-02-22T02:59:50.210Z,14.80
2018-02-22T03:00:50.137Z,14.10
2018-02-22T03:01:49.780Z,13.50
2018-02-22T03:02:49.387Z,14.60
2018-02-22T03:04:11.600Z,13.50
2018-02-22T03:05:12.248Z,14.60
2018-02-22T03:06:11.969Z,14.00
2018-02-22T03:07:11.318Z,14.10
2018-02-22T03:08:11.610Z,13.70
2018-02-22T03:09:12.247Z,14.00
2018-02-22T03:10:11.550Z,14.60
2018-02-22T03:11:12.357Z,15.00
2018-02-22T03:12:12.155Z,14.60
2018-02-22T03:13:11.598Z,14.70
2018-02-22T03:14:33.429Z,15.20
2018-02-22T03:15:34.133Z,14.90
2018-02-22T03:16:33.750Z,14.50
2018-02-22T03:17:34.109Z,14.60
2018-02-22T03:18:33.872Z,14.90
2018-02-22T03:19:33.582Z,15.30
2018-02-22T03:20:34.268Z,14.50
2018-02-22T03:21:33.912Z,15.00
2018-02-22T03:22:33.687Z,15.20
2018-02-22T03:23:34.116Z,15.40
2018-02-22T03:24:33.501Z,15.00
2018-02-22T03:25:34.375Z,15.90
2018-02-22T03:26:33.922Z,15.10
2018-02-22T03:27:33.380Z,15.80
2018-02-22T03:28:34.192Z,16.00
2018-02-22T03:29:33.318Z,15.40
2018-02-22T03:30:34.014Z,15.70
2018-02-22T03:31:33.390Z,14.80
2018-02-22T03:32:33.826Z,16.10
2018-02-22T03:33:33.468Z,16.20
2018-02-22T03:34:34.178Z,16.80
2018-02-22T03:35:33.975Z,16.20
2018-02-22T03:36:33.775Z,15.90
2018-02-22T03:37:34.074Z,16.20
2018-02-22T03:38:33.612Z,17.10
2018-02-22T03:39:34.563Z,16.10
2018-02-22T03:40:34.283Z,16.40
2018-02-22T03:41:34.137Z,15.50
2018-02-22T03:42:33.601Z,15.80
2018-02-22T03:43:33.950Z,16.10
2018-02-22T03:44:33.791Z,17.00
2018-02-22T03:45:34.106Z,16.70
2018-02-22T03:46:33.914Z,16.90
2018-02-22T03:47:33.503Z,16.90
2018-02-22T03:48:34.054Z,16.70
2018-02-22T03:49:33.717Z,16.90
2018-02-22T03:50:55.271Z,16.40
2018-02-22T03:51:54.765Z,16.80
2018-02-22T03:52:55.328Z,17.10
2018-02-22T03:53:54.638Z,16.60
2018-02-22T03:54:55.139Z,17.00
2018-02-22T03:55:54.849Z,17.10
2018-02-22T03:56:55.500Z,17.50
2018-02-22T03:57:55.170Z,17.20
2018-02-22T03:58:54.858Z,16.40
2018-02-22T03:59:55.209Z,17.00
2018-02-22T04:00:55.193Z,17.20
2018-02-22T04:01:54.741Z,17.50
2018-02-22T04:02:55.315Z,16.90
2018-02-22T04:03:54.770Z,16.40
2018-02-22T04:04:55.174Z,17.20
2018-02-22T04:05:54.987Z,17.50
2018-02-22T04:06:54.364Z,16.40
2018-02-22T04:08:37.280Z,17.60
2018-02-22T04:09:37.568Z,17.10
2018-02-22T04:10:37.766Z,17.60
2018-02-22T04:11:38.352Z,18.90
2018-02-22T04:12:37.860Z,17.90
2018-02-22T04:13:37.283Z,17.70
2018-02-22T04:14:37.569Z,18.00
2018-02-22T04:15:38.087Z,17.10
2018-02-22T04:16:37.938Z,18.10
2018-02-22T04:17:37.471Z,17.90
2018-02-22T04:18:37.697Z,18.10
2018-02-22T04:19:38.365Z,17.70
2018-02-22T04:20:44.145Z,17.60
2018-02-22T04:21:37.996Z,19.50
2018-02-22T04:22:38.572Z,19.00
2018-02-22T04:23:38.433Z,17.80
2018-02-22T04:24:38.024Z,18.40
2018-02-22T04:25:37.875Z,18.10
2018-02-22T04:26:38.585Z,18.20
2018-02-22T04:27:38.445Z,18.60
2018-02-22T04:28:37.681Z,18.50
2018-02-22T04:29:38.464Z,18.20
2018-02-22T04:30:38.140Z,18.30
2018-02-22T04:31:37.943Z,18.20
2018-02-22T04:32:37.557Z,18.40
2018-02-22T04:33:37.899Z,18.30
2018-02-22T04:34:37.813Z,18.70
2018-02-22T04:35:38.554Z,17.80
2018-02-22T04:36:38.194Z,36.90
2018-02-22T04:37:38.002Z,26.70
2018-02-22T04:38:37.742Z,23.20
2018-02-22T04:39:38.550Z,20.10
2018-02-22T04:40:38.261Z,20.10
2018-02-22T04:41:37.973Z,19.10
2018-02-22T04:42:38.957Z,19.30
2018-02-22T04:43:37.230Z,17.90
2018-02-22T04:44:37.869Z,19.00
2018-02-22T04:45:38.215Z,19.70
2018-02-22T04:46:37.944Z,18.40
2018-02-22T04:47:37.211Z,18.40
2018-02-22T04:48:38.298Z,19.60
2018-02-22T04:49:37.723Z,19.30
2018-02-22T04:50:59.588Z,20.00
2018-02-22T04:51:59.804Z,18.60
2018-02-22T04:53:00.079Z,19.50
2018-02-22T04:53:59.500Z,20.50
2018-02-22T04:55:00.210Z,21.50
2018-02-22T04:55:59.767Z,20.30
2018-02-22T04:57:00.373Z,19.80
2018-02-22T04:57:59.893Z,20.30
2018-02-22T04:59:01.057Z,20.00
2018-02-22T04:59:59.743Z,19.80
2018-02-22T05:01:21.476Z,19.50
2018-02-22T05:02:22.210Z,20.20
2018-02-22T05:03:21.629Z,19.20
2018-02-22T05:04:22.198Z,20.00
2018-02-22T05:05:21.895Z,20.00
2018-02-22T05:06:21.656Z,19.20
2018-02-22T05:07:22.092Z,20.00
2018-02-22T05:08:21.376Z,19.60
2018-02-22T05:09:22.165Z,19.90
2018-02-22T05:10:21.876Z,19.00
2018-02-22T05:11:22.256Z,19.60
2018-02-22T05:12:21.656Z,19.60
2018-02-22T05:13:22.253Z,19.80
2018-02-22T05:14:21.513Z,19.20
2018-02-22T05:15:22.033Z,19.40
2018-02-22T05:16:21.605Z,19.70
2018-02-22T05:17:22.019Z,20.30
2018-02-22T05:18:21.791Z,19.60
2018-02-22T05:19:21.797Z,19.20
2018-02-22T05:20:21.689Z,20.60
2018-02-22T05:21:22.140Z,21.50
2018-02-22T05:22:21.847Z,19.30
2018-02-22T05:23:22.577Z,19.50
2018-02-22T05:24:22.049Z,19.90
2018-02-22T05:25:21.876Z,20.80
2018-02-22T05:26:21.417Z,19.40
2018-02-22T05:27:21.784Z,20.70
2018-02-22T05:28:21.298Z,20.20
2018-02-22T05:29:22.448Z,20.60
2018-02-22T05:30:22.337Z,18.90
2018-02-22T05:31:21.792Z,19.80
2018-02-22T05:32:22.543Z,19.90
2018-02-22T05:33:21.888Z,20.10
2018-02-22T05:34:21.510Z,19.40
2018-02-22T05:35:22.113Z,19.90
2018-02-22T05:36:21.813Z,21.40
2018-02-22T05:37:22.453Z,20.00
2018-02-22T05:38:21.822Z,19.90
2018-02-22T05:39:22.409Z,20.00
2018-02-22T05:40:22.261Z,20.20
2018-02-22T05:41:21.996Z,21.00
2018-02-22T05:42:21.428Z,19.90
2018-02-22T05:43:22.085Z,20.20
2018-02-22T05:44:42.809Z,20.30
2018-02-22T05:45:43.377Z,19.10
2018-02-22T05:46:43.138Z,20.60
2018-02-22T05:47:43.592Z,20.90
2018-02-22T05:48:43.026Z,20.60
2018-02-22T05:49:50.968Z,20.20
2018-02-22T05:50:43.890Z,20.80
2018-02-22T05:51:43.520Z,19.50
2018-02-22T05:52:43.009Z,20.40
2018-02-22T05:53:43.498Z,19.70
2018-02-22T05:54:45.282Z,19.40
2018-02-22T05:55:42.934Z,20.50
2018-02-22T05:56:43.761Z,20.70
2018-02-22T05:57:43.173Z,18.80
2018-02-22T05:59:06.421Z,19.90
2018-02-22T06:00:05.319Z,20.20
2018-02-22T06:01:04.755Z,20.30
2018-02-22T06:02:04.546Z,20.30
2018-02-22T06:03:05.108Z,20.20
2018-02-22T06:04:04.924Z,19.50
2018-02-22T06:05:05.451Z,20.50
2018-02-22T06:06:08.647Z,20.50
2018-02-22T06:07:05.256Z,20.50
2018-02-22T06:08:05.233Z,20.70
2018-02-22T06:09:04.665Z,20.40
2018-02-22T06:10:05.497Z,22.30
2018-02-22T06:11:05.289Z,20.60
2018-02-22T06:12:04.749Z,20.80
2018-02-22T06:13:04.437Z,21.20
2018-02-22T06:14:26.489Z,21.50
2018-02-22T06:15:27.337Z,20.40
2018-02-22T06:16:27.125Z,20.00
2018-02-22T06:17:26.845Z,20.20
2018-02-22T06:18:27.302Z,20.60
2018-02-22T06:19:26.752Z,20.30
2018-02-22T06:20:29.572Z,20.40
2018-02-22T06:21:27.635Z,21.50
2018-02-22T06:22:27.232Z,20.60
2018-02-22T06:23:26.899Z,21.10
2018-02-22T06:24:27.311Z,20.20
2018-02-22T06:25:27.276Z,20.80
2018-02-22T06:26:26.941Z,21.90
2018-02-22T06:27:27.259Z,20.90
2018-02-22T06:28:26.797Z,20.90
2018-02-22T06:29:26.538Z,19.80
2018-02-22T06:30:26.890Z,21.60
2018-02-22T06:31:26.479Z,21.70
2018-02-22T06:32:27.369Z,20.80
2018-02-22T06:33:27.208Z,20.30
2018-02-22T06:34:26.609Z,21.40
2018-02-22T06:35:27.435Z,21.70
2018-02-22T06:36:27.022Z,21.80
2018-02-22T06:37:26.580Z,21.30
2018-02-22T06:38:27.741Z,20.20
2018-02-22T06:39:27.522Z,21.10
2018-02-22T06:40:27.168Z,21.70
2018-02-22T06:42:01.778Z,21.80
2018-02-22T06:43:02.707Z,21.10
2018-02-22T06:44:02.645Z,21.80
2018-02-22T06:45:03.404Z,21.90
2018-02-22T06:46:02.188Z,20.90
2018-02-22T06:47:02.908Z,21.60
2018-02-22T06:48:02.416Z,20.60
2018-02-22T06:49:02.186Z,21.70
2018-02-22T06:50:03.177Z,22.10
2018-02-22T06:51:02.912Z,20.60
2018-02-22T06:52:02.799Z,21.70
2018-02-22T06:53:02.801Z,21.90
2018-02-22T06:54:02.528Z,20.90
2018-02-22T06:55:02.367Z,21.40
2018-02-22T06:56:01.816Z,21.60
2018-02-22T06:57:02.916Z,21.60
2018-02-22T06:58:02.636Z,22.00
2018-02-22T06:59:02.262Z,21.60
2018-02-22T07:00:02.139Z,20.50
2018-02-22T07:01:03.189Z,20.80
2018-02-22T07:02:02.019Z,21.70
2018-02-22T07:03:02.743Z,21.00
2018-02-22T07:04:02.483Z,19.50
2018-02-22T07:05:01.872Z,20.00
2018-02-22T07:06:02.776Z,19.90
2018-02-22T07:07:02.751Z,20.40
2018-02-22T07:08:02.778Z,19.10
2018-02-22T07:09:02.326Z,19.80
2018-02-22T07:10:01.670Z,19.90
2018-02-22T07:11:02.469Z,20.00
2018-02-22T07:12:01.965Z,19.80
2018-02-22T07:13:02.692Z,20.00
2018-02-22T07:14:02.395Z,19.50
2018-02-22T07:15:02.026Z,19.80
2018-02-22T07:16:02.491Z,19.40
2018-02-22T07:18:03.685Z,18.50
2018-02-22T07:19:26.146Z,19.30
2018-02-22T07:20:26.605Z,17.60
2018-02-22T07:21:26.418Z,18.70
2018-02-22T07:22:25.811Z,20.20
2018-02-22T07:23:26.300Z,19.50
2018-02-22T07:24:27.203Z,19.10
2018-02-22T07:25:26.963Z,19.50
2018-02-22T07:26:32.507Z,18.80
2018-02-22T07:27:26.258Z,18.20
2018-02-22T07:28:33.064Z,19.70
2018-02-22T07:29:27.717Z,19.40
2018-02-22T07:30:31.224Z,18.70
2018-02-22T07:31:34.187Z,18.80
2018-02-22T07:33:01.143Z,18.90
2018-02-22T07:34:03.378Z,17.60
2018-02-22T07:34:59.361Z,19.00
2018-02-22T07:36:00.930Z,19.50
2018-02-22T07:36:59.296Z,18.80
2018-02-22T07:37:59.618Z,17.50
2018-02-22T07:38:59.313Z,17.40
2018-02-22T07:39:59.325Z,18.60
2018-02-22T07:40:59.738Z,18.40
2018-02-22T07:41:59.173Z,18.60
2018-02-22T07:42:59.750Z,18.70
2018-02-22T07:43:58.278Z,17.70
2018-02-22T07:44:59.052Z,18.20
2018-02-22T07:45:59.068Z,17.30
2018-02-22T07:47:20.235Z,17.70
2018-02-22T07:48:20.924Z,18.40
2018-02-22T07:49:20.672Z,17.60
2018-02-22T07:50:21.794Z,18.40
2018-02-22T07:51:20.654Z,17.40
2018-02-22T07:52:21.354Z,17.20
2018-02-22T07:53:20.911Z,17.30
2018-02-22T07:54:20.602Z,17.20
2018-02-22T07:55:21.214Z,18.10
2018-02-22T07:56:21.271Z,15.60
2018-02-22T07:57:21.150Z,17.90
2018-02-22T07:58:20.763Z,17.10
2018-02-22T07:59:20.593Z,17.00
2018-02-22T08:00:21.260Z,17.80
2018-02-22T08:01:21.429Z,17.00
2018-02-22T08:02:21.155Z,17.50
2018-02-22T08:03:21.050Z,17.90
2018-02-22T08:04:20.895Z,16.90
2018-02-22T08:05:20.681Z,17.00
2018-02-22T08:06:21.369Z,17.80
2018-02-22T08:07:21.191Z,16.70
2018-02-22T08:08:21.102Z,15.60
2018-02-22T08:09:20.873Z,16.40
2018-02-22T08:10:20.477Z,16.50
2018-02-22T08:11:21.261Z,16.90
2018-02-22T08:12:21.267Z,17.10
2018-02-22T08:13:21.312Z,17.90
2018-02-22T08:14:21.305Z,16.70
2018-02-22T08:15:21.246Z,16.70
2018-02-22T08:16:20.956Z,17.20
2018-02-22T08:17:20.492Z,16.90
2018-02-22T08:18:21.285Z,17.00
2018-02-22T08:19:21.179Z,16.30
2018-02-22T08:20:21.148Z,17.60
2018-02-22T08:21:20.955Z,16.70
2018-02-22T08:22:20.501Z,16.40
2018-02-22T08:23:21.590Z,17.60
2018-02-22T08:24:21.385Z,16.10
2018-02-22T08:25:20.788Z,16.00
2018-02-22T08:26:21.287Z,16.90
2018-02-22T08:27:21.362Z,17.90
2018-02-22T08:28:21.180Z,17.60
2018-02-22T08:29:20.908Z,17.20
2018-02-22T08:30:20.891Z,16.40
2018-02-22T08:31:20.712Z,17.70
2018-02-22T08:32:20.464Z,16.50
2018-02-22T08:33:21.180Z,16.90
2018-02-22T08:34:20.663Z,17.10
2018-02-22T08:35:21.436Z,18.40
2018-02-22T08:36:21.634Z,16.60
2018-02-22T08:37:21.115Z,16.00
2018-02-22T08:38:20.935Z,17.00
2018-02-22T08:39:20.761Z,15.40
2018-02-22T08:40:20.197Z,16.40
2018-02-22T08:41:21.005Z,16.60
2018-02-22T08:42:20.584Z,16.50
2018-02-22T08:43:21.072Z,16.40
2018-02-22T08:44:20.775Z,16.80
2018-02-22T08:45:20.362Z,15.90
2018-02-22T08:46:21.247Z,17.10
2018-02-22T08:47:21.168Z,15.60
2018-02-22T08:48:21.450Z,15.60
2018-02-22T08:49:21.446Z,16.20
2018-02-22T08:50:21.695Z,15.50
2018-02-22T08:51:21.438Z,17.30
2018-02-22T08:52:42.562Z,17.20
2018-02-22T08:53:43.174Z,16.70
2018-02-22T08:54:42.933Z,16.50
2018-02-22T08:55:42.391Z,16.40
2018-02-22T08:56:43.194Z,17.40
2018-02-22T08:58:11.405Z,16.70
2018-02-22T08:59:12.202Z,16.60
2018-02-22T09:00:11.472Z,17.40
2018-02-22T09:01:12.300Z,15.50
2018-02-22T09:02:10.937Z,15.90
2018-02-22T09:03:10.875Z,16.50
2018-02-22T09:04:13.735Z,17.40
2018-02-22T09:05:11.415Z,16.10
2018-02-22T09:06:11.618Z,16.30
2018-02-22T09:07:11.362Z,16.00
2018-02-22T09:08:11.040Z,15.10
2018-02-22T09:09:10.726Z,16.20
2018-02-22T09:10:11.451Z,15.70
2018-02-22T09:11:32.996Z,16.80
2018-02-22T09:12:33.977Z,15.70
2018-02-22T09:13:34.007Z,15.70
2018-02-22T09:14:33.588Z,14.20
2018-02-22T09:15:33.623Z,15.60
2018-02-22T09:16:33.537Z,14.90
2018-02-22T09:17:33.191Z,15.80
2018-02-22T09:18:32.856Z,14.60
2018-02-22T09:19:33.410Z,15.60
2018-02-22T09:20:33.119Z,14.90
2018-02-22T09:21:33.868Z,14.20
2018-02-22T09:22:33.454Z,15.40
2018-02-22T09:23:33.243Z,15.20
2018-02-22T09:24:32.835Z,15.50
2018-02-22T09:25:33.453Z,13.60
2018-02-22T09:26:33.824Z,15.00
2018-02-22T09:27:33.751Z,13.10
2018-02-22T09:28:33.476Z,14.00
2018-02-22T09:29:33.609Z,13.60
2018-02-22T09:30:33.534Z,12.90
2018-02-22T09:31:33.384Z,14.70
2018-02-22T09:32:32.885Z,14.00
2018-02-22T09:33:55.077Z,13.70
2018-02-22T09:34:55.805Z,14.50
2018-02-22T09:35:55.728Z,13.40
2018-02-22T09:36:55.577Z,13.00
2018-02-22T09:37:56.889Z,13.80
2018-02-22T09:38:55.654Z,13.50
2018-02-22T09:40:18.853Z,13.70
2018-02-22T09:41:19.752Z,13.00
2018-02-22T09:42:20.587Z,13.10
2018-02-22T09:43:19.040Z,12.70
2018-02-22T09:44:19.200Z,13.20
2018-02-22T09:45:22.241Z,13.10
2018-02-22T09:46:18.911Z,13.00
2018-02-22T09:47:18.464Z,12.70
2018-02-22T09:48:19.728Z,13.90
2018-02-22T09:49:19.991Z,13.30
2018-02-22T09:50:19.324Z,13.40
2018-02-22T09:51:19.681Z,12.90
2018-02-22T09:52:44.614Z,13.10
2018-02-22T09:53:46.309Z,13.10
2018-02-22T09:55:11.942Z,13.70
2018-02-22T09:56:41.445Z,14.10
2018-02-22T09:57:40.726Z,13.60
2018-02-22T09:58:39.836Z,13.50
2018-02-22T09:59:58.832Z,12.70
2018-02-22T10:00:59.508Z,13.30
2018-02-22T10:01:59.300Z,14.00
2018-02-22T10:02:59.204Z,12.70
2018-02-22T10:04:00.157Z,13.20
2018-02-22T10:04:59.162Z,14.00
2018-02-22T10:05:59.639Z,14.50
2018-02-22T10:06:59.473Z,15.20
2018-02-22T10:08:20.944Z,14.70
2018-02-22T10:09:21.379Z,14.50
2018-02-22T10:10:21.209Z,15.10
2018-02-22T10:11:20.808Z,14.50
2018-02-22T10:12:21.718Z,15.60
2018-02-22T10:13:23.822Z,14.30
2018-02-22T10:14:21.318Z,14.30
2018-02-22T10:15:21.075Z,15.20
2018-02-22T10:16:20.993Z,14.50
2018-02-22T10:17:43.322Z,12.90
2018-02-22T10:18:43.802Z,14.80
2018-02-22T10:19:44.103Z,14.10
2018-02-22T10:20:44.015Z,13.90
2018-02-22T10:22:26.121Z,14.50
2018-02-22T10:23:26.782Z,14.40
2018-02-22T10:24:35.558Z,13.70
2018-02-22T10:25:28.147Z,13.40
2018-02-22T10:26:27.072Z,13.00
2018-02-22T10:27:27.899Z,13.50
2018-02-22T10:28:50.967Z,13.50
2018-02-22T10:29:52.224Z,13.10
2018-02-22T10:31:12.612Z,13.40
2018-02-22T10:32:14.407Z,13.40
2018-02-22T10:33:12.949Z,12.20
2018-02-22T10:34:12.485Z,12.90
2018-02-22T10:35:13.406Z,13.90
2018-02-22T10:36:35.162Z,13.10
2018-02-22T10:37:34.565Z,12.40
2018-02-22T10:38:35.680Z,13.50
2018-02-22T10:39:35.264Z,12.70
2018-02-22T10:40:57.520Z,12.80
2018-02-22T10:41:57.099Z,12.80
2018-02-22T10:43:19.261Z,13.10
2018-02-22T10:44:20.413Z,12.60
2018-02-22T10:45:19.059Z,14.10
2018-02-22T10:46:20.095Z,13.30
2018-02-22T10:47:20.501Z,12.60
2018-02-22T10:48:19.410Z,13.80
2018-02-22T10:49:20.000Z,13.60
2018-02-22T10:50:19.495Z,13.40
2018-02-22T10:51:18.991Z,13.20
2018-02-22T10:52:19.590Z,13.00
2018-02-22T10:53:19.547Z,12.30
2018-02-22T10:54:19.119Z,13.40
2018-02-22T10:56:10.530Z,13.00
2018-02-22T10:57:02.096Z,12.80
2018-02-22T10:58:01.933Z,12.90
2018-02-22T10:59:02.483Z,12.30
2018-02-22T11:00:02.030Z,12.40
2018-02-22T11:01:05.142Z,12.30
2018-02-22T11:02:03.757Z,12.70
2018-02-22T11:03:03.380Z,12.70
2018-02-22T11:04:03.451Z,12.60
2018-02-22T11:05:02.087Z,12.60
2018-02-22T11:06:30.075Z,11.90
2018-02-22T11:07:28.942Z,12.10
2018-02-22T11:08:32.206Z,12.80
2018-02-22T11:09:37.465Z,13.10
2018-02-22T11:10:30.504Z,11.90
2018-02-22T11:11:30.782Z,12.00
2018-02-22T11:12:26.485Z,12.20
2018-02-22T11:13:26.648Z,13.20
2018-02-22T11:14:47.906Z,12.70
2018-02-22T11:16:10.612Z,13.20
2018-02-22T11:17:10.186Z,12.00
2018-02-22T11:18:11.014Z,12.80
2018-02-22T11:19:11.605Z,12.80
2018-02-22T11:20:10.171Z,12.60
2018-02-22T11:21:32.661Z,13.00
2018-02-22T11:22:33.591Z,13.30
2018-02-22T11:23:33.717Z,13.30
2018-02-22T11:24:33.849Z,13.50
2018-02-22T11:25:32.747Z,13.30
2018-02-22T11:26:32.910Z,13.10
2018-02-22T11:27:32.996Z,11.50
2018-02-22T11:28:32.811Z,12.30
2018-02-22T11:29:33.353Z,11.80
2018-02-22T11:30:33.338Z,12.40
2018-02-22T11:31:33.022Z,11.50
2018-02-22T11:32:32.681Z,12.80
2018-02-22T11:33:55.731Z,12.20
2018-02-22T11:35:43.690Z,11.70
2018-02-22T11:36:42.635Z,12.60
2018-02-22T11:37:42.887Z,11.50
2018-02-22T11:38:41.892Z,12.30
2018-02-22T11:39:41.852Z,12.90
2018-02-22T11:40:43.594Z,13.10
2018-02-22T11:41:42.858Z,12.40
2018-02-22T11:42:41.861Z,12.50
2018-02-22T11:44:07.985Z,11.60
2018-02-22T11:45:10.601Z,12.10
2018-02-22T11:46:51.909Z,11.10
2018-02-22T11:47:51.196Z,13.10
2018-02-22T11:48:51.359Z,21.80
2018-02-22T11:49:51.239Z,14.70
2018-02-22T11:51:15.011Z,12.00
2018-02-22T11:52:14.545Z,11.50
2018-02-22T11:53:13.404Z,12.90
2018-02-22T11:54:14.602Z,12.20
2018-02-22T11:55:13.588Z,12.90
2018-02-22T11:56:35.668Z,13.40
2018-02-22T11:57:35.725Z,13.20
2018-02-22T11:58:36.828Z,13.50
2018-02-22T11:59:35.705Z,13.10
2018-02-22T12:00:35.529Z,13.70
2018-02-22T12:01:36.825Z,13.20
2018-02-22T12:02:58.314Z,13.40
2018-02-22T12:03:59.140Z,13.40
2018-02-22T12:04:59.015Z,14.90
2018-02-22T12:05:58.762Z,31.20
2018-02-22T12:06:58.727Z,18.90
2018-02-22T12:07:59.510Z,11.10
2018-02-22T12:08:59.251Z,11.60
2018-02-22T12:10:21.194Z,11.90
2018-02-22T12:11:21.143Z,11.30
2018-02-22T12:12:21.229Z,11.80
2018-02-22T12:13:23.695Z,12.70
2018-02-22T12:14:20.309Z,12.00
2018-02-22T12:15:21.205Z,12.80
2018-02-22T12:16:42.879Z,12.30
2018-02-22T12:17:44.565Z,13.60
2018-02-22T12:18:43.006Z,12.60
2018-02-22T12:19:44.107Z,12.40
2018-02-22T12:20:43.968Z,11.90
2018-02-22T12:21:44.117Z,11.90
2018-02-22T12:22:44.020Z,13.10
2018-02-22T12:23:43.553Z,13.10
2018-02-22T12:24:43.236Z,12.60
2018-02-22T12:25:43.068Z,12.00
2018-02-22T12:26:43.941Z,11.80
2018-02-22T12:27:43.910Z,12.80
2018-02-22T12:28:43.445Z,11.70
2018-02-22T12:29:43.294Z,12.70
2018-02-22T12:30:44.741Z,12.40
2018-02-22T12:31:43.296Z,12.20
2018-02-22T12:32:44.221Z,14.10
2018-02-22T12:33:43.914Z,16.80
2018-02-22T12:34:43.522Z,14.50
2018-02-22T12:35:43.066Z,11.20
2018-02-22T12:36:43.761Z,12.80
2018-02-22T12:37:43.257Z,12.60
2018-02-22T12:38:43.062Z,13.10
2018-02-22T12:39:43.653Z,13.20
2018-02-22T12:40:43.529Z,12.70
2018-02-22T12:41:43.173Z,13.00
2018-02-22T12:42:44.086Z,14.50
2018-02-22T12:44:05.143Z,14.00
2018-02-22T12:45:06.224Z,14.00
2018-02-22T12:46:05.712Z,12.80
2018-02-22T12:47:05.615Z,13.80
2018-02-22T12:48:05.387Z,14.10
2018-02-22T12:49:05.081Z,12.60
2018-02-22T12:50:05.797Z,13.80
2018-02-22T12:51:05.643Z,14.40
2018-02-22T12:52:05.272Z,13.40
2018-02-22T12:53:06.867Z,13.90
2018-02-22T12:54:05.570Z,14.20
2018-02-22T12:55:05.755Z,13.80
2018-02-22T12:56:05.224Z,12.90
2018-02-22T12:57:05.958Z,16.80
2018-02-22T12:58:06.003Z,15.00
2018-02-22T12:59:05.989Z,16.80
2018-02-22T13:00:07.489Z,14.40
2018-02-22T13:01:05.832Z,13.30
2018-02-22T13:02:05.709Z,14.10
2018-02-22T13:03:05.411Z,15.80
2018-02-22T13:04:05.605Z,13.20
2018-02-22T13:05:05.513Z,14.20
2018-02-22T13:06:05.292Z,14.70
2018-02-22T13:07:05.737Z,14.30
2018-02-22T13:08:05.522Z,14.50
2018-02-22T13:09:05.665Z,13.30
2018-02-22T13:10:05.804Z,15.50
2018-02-22T13:11:05.822Z,65.60
2018-02-22T13:12:05.787Z,165.50
2018-02-22T13:13:06.246Z,203.40
2018-02-22T13:14:06.213Z,63.50
2018-02-22T13:15:06.111Z,63.80
2018-02-22T13:16:06.105Z,54.30